createdAt,value
2019-06-07T00:05:03.371Z,100839.28
2019-06-07T00:10:09.236Z,100829.15
2019-06-07T00:15:16.396Z,100827.55
2019-06-07T00:20:23.246Z,100824.38
2019-06-07T00:25:24.418Z,100814.59
2019-06-07T00:30:41.057Z,100816.78
2019-06-07T00:35:33.852Z,100810.19
2019-06-07T00:40:37.411Z,100819.22
2019-06-07T00:45:40.951Z,100825.42
2019-06-07T00:50:44.537Z,100819.22
2019-06-07T00:55:48.014Z,100825.92
2019-06-07T01:00:51.478Z,100817.48
2019-06-07T01:05:55.119Z,100822.11
2019-06-07T01:10:58.624Z,100829.80
2019-06-07T01:16:02.298Z,100829.80
2019-06-07T01:21:05.872Z,100824.42
2019-06-07T01:26:09.306Z,100817.98
2019-06-07T01:31:12.772Z,100807.05
2019-06-07T01:36:17.883Z,100808.84
2019-06-07T01:41:25.422Z,100806.91
2019-06-07T01:46:26.999Z,100801.29
2019-06-07T01:51:32.360Z,100795.83
2019-06-07T01:56:35.829Z,100790.56
2019-06-07T02:01:39.302Z,100774.82
2019-06-07T02:06:42.943Z,100770.62
2019-06-07T02:11:46.595Z,100762.93
2019-06-07T02:16:50.098Z,100752.70
2019-06-07T02:21:53.561Z,100753.79
2019-06-07T02:26:57.030Z,100757.81
2019-06-07T02:32:00.496Z,100742.81
2019-06-07T02:37:05.164Z,100740.88
2019-06-07T02:42:09.226Z,100730.16
2019-06-07T02:47:12.720Z,100720.02
2019-06-07T02:52:16.258Z,100712.94
2019-06-07T02:57:19.713Z,100697.84
2019-06-07T03:02:25.549Z,100683.59
2019-06-07T03:07:35.349Z,100676.00
2019-06-07T03:12:39.380Z,100673.22
2019-06-07T03:17:45.270Z,100672.12
2019-06-07T03:22:50.930Z,100665.03
2019-06-07T03:27:54.640Z,100659.56
2019-06-07T03:32:58.102Z,100659.56
2019-06-07T03:38:01.664Z,100652.97
2019-06-07T03:43:05.590Z,100639.56
2019-06-07T03:48:09.062Z,100639.56
2019-06-07T03:53:12.508Z,100641.89
2019-06-07T03:58:36.792Z,100635.47
2019-06-07T04:03:33.602Z,100628.14
2019-06-07T04:08:28.157Z,100620.23
2019-06-07T04:13:36.729Z,100615.31
2019-06-07T04:18:40.813Z,100619.93
2019-06-07T04:23:45.765Z,100611.97
2019-06-07T04:29:31.611Z,100608.84
2019-06-07T04:33:52.567Z,100609.59
2019-06-07T04:38:57.178Z,100601.06
2019-06-07T04:44:02.574Z,100604.97
2019-06-07T04:49:06.103Z,100603.88
2019-06-07T04:54:09.622Z,100597.81
2019-06-07T04:59:13.057Z,100581.62
2019-06-07T05:04:16.992Z,100582.26
2019-06-07T05:09:20.701Z,100572.73
2019-06-07T05:14:24.240Z,100555.56
2019-06-07T05:19:27.720Z,100530.10
2019-06-07T05:24:37.675Z,100534.64
2019-06-07T05:29:39.261Z,100523.31
2019-06-07T05:34:46.948Z,100519.64
2019-06-07T05:39:47.326Z,100512.48
2019-06-07T05:44:51.065Z,100512.72
2019-06-07T05:49:54.800Z,100520.16
2019-06-07T05:54:58.271Z,100505.30
2019-06-07T06:00:01.770Z,100493.23
2019-06-07T06:05:06.570Z,100499.98
2019-06-07T06:10:10.525Z,100500.09
2019-06-07T06:15:14.737Z,100491.68
2019-06-07T06:20:18.951Z,100481.41
2019-06-07T06:25:32.427Z,100470.11
2019-06-07T06:30:27.845Z,100470.48
2019-06-07T06:35:31.308Z,100469.34
2019-06-07T06:40:34.794Z,100451.56
2019-06-07T06:45:39.841Z,100454.23
2019-06-07T06:50:46.581Z,100459.53
2019-06-07T06:55:51.231Z,100447.69
2019-06-07T07:01:05.977Z,100438.91
2019-06-07T07:06:24.256Z,100423.06
2019-06-07T07:11:05.205Z,100425.98
2019-06-07T07:16:08.740Z,100420.85
2019-06-07T07:21:12.215Z,100392.08
2019-06-07T07:26:15.697Z,100396.33
2019-06-07T07:31:19.181Z,100396.33
2019-06-07T07:36:37.999Z,100388.78
2019-06-07T07:41:27.850Z,100369.39
2019-06-07T07:46:31.625Z,100365.02
2019-06-07T07:51:35.307Z,100361.22
2019-06-07T07:56:38.765Z,100353.02
2019-06-07T08:01:42.305Z,100347.77
2019-06-07T08:06:46.642Z,100333.84
2019-06-07T08:11:52.946Z,100326.17
2019-06-07T08:16:57.875Z,100319.56
2019-06-07T08:22:01.869Z,100306.25
2019-06-07T08:27:25.158Z,100305.64
2019-06-07T08:32:10.724Z,100299.27
2019-06-07T08:37:14.188Z,100285.51
2019-06-07T08:42:21.935Z,100267.06
2019-06-07T08:47:23.336Z,100257.33
2019-06-07T08:52:26.824Z,100254.37
2019-06-07T08:57:30.403Z,100247.79
2019-06-07T09:02:34.021Z,100244.73
2019-06-07T09:07:37.662Z,100233.75
2019-06-07T09:12:41.376Z,100217.64
2019-06-07T09:18:30.146Z,100228.48
2019-06-07T09:22:50.083Z,100217.27
2019-06-07T09:27:54.198Z,100214.95
2019-06-07T09:32:58.964Z,100218.98
2019-06-07T09:38:14.288Z,100221.05
2019-06-07T09:48:34.373Z,100211.43
2019-06-07T09:53:23.241Z,100203.50
2019-06-07T10:03:31.301Z,100166.98
2019-06-07T10:09:56.798Z,100169.73
2019-06-07T10:13:40.238Z,100149.98
2019-06-07T10:18:43.789Z,100138.28
2019-06-07T10:23:47.265Z,100112.88
2019-06-07T10:28:53.461Z,100094.87
2019-06-07T10:33:57.508Z,100068.38
2019-06-07T10:39:00.993Z,100068.38
2019-06-07T10:44:05.522Z,100069.72
2019-06-07T10:49:10.141Z,100052.66
2019-06-07T10:54:24.595Z,100038.52
2019-06-07T10:59:18.921Z,100024.14
2019-06-07T11:04:22.404Z,100034.03
2019-06-07T11:09:25.862Z,100030.72
2019-06-07T11:14:29.573Z,100018.15
2019-06-07T11:19:33.032Z,100011.09
2019-06-07T11:24:36.495Z,100012.85
2019-06-07T11:29:39.939Z,100015.03
2019-06-07T11:34:43.490Z,100005.59
2019-06-07T11:39:46.955Z,100014.03
2019-06-07T11:44:56.955Z,100022.24
2019-06-07T11:49:56.239Z,100034.88
2019-06-07T11:55:01.237Z,100020.74
2019-06-07T12:00:14.077Z,100004.43
2019-06-07T12:05:20.104Z,100019.78
2019-06-07T12:10:23.581Z,100021.45
2019-06-07T12:15:27.305Z,100009.63
2019-06-07T12:20:30.779Z,100023.89
2019-06-07T12:25:34.230Z,100031.22
2019-06-07T12:30:37.748Z,100026.70
2019-06-07T12:35:41.211Z,100013.56
2019-06-07T12:40:56.798Z,100023.21
2019-06-07T12:45:49.933Z,100027.86
2019-06-07T12:50:53.552Z,100015.16
2019-06-07T12:56:00.000Z,100016.97
2019-06-07T13:01:02.293Z,100016.68
2019-06-07T13:06:05.853Z,100012.16
2019-06-07T13:11:15.874Z,100006.58
2019-06-07T13:16:16.318Z,100010.05
2019-06-07T13:21:20.316Z,100002.63
2019-06-07T13:26:24.922Z,100013.03
2019-06-07T13:31:28.773Z,100010.47
2019-06-07T13:36:32.232Z,100009.47
2019-06-07T13:41:42.590Z,100003.55
2019-06-07T13:46:41.036Z,100001.70
2019-06-07T13:51:44.512Z,100004.10
2019-06-07T13:57:01.296Z,100006.77
2019-06-07T14:01:53.209Z,100014.82
2019-06-07T14:06:56.936Z,100023.17
2019-06-07T14:12:00.544Z,100022.59
2019-06-07T14:17:04.945Z,100016.47
2019-06-07T14:22:08.430Z,100019.27
2019-06-07T14:27:11.922Z,100018.06
2019-06-07T14:32:15.389Z,100039.23
2019-06-07T14:37:18.879Z,100050.22
2019-06-07T14:42:25.554Z,100065.78
2019-06-07T14:47:29.992Z,100106.79
2019-06-07T14:52:35.392Z,100124.64
2019-06-07T14:57:39.050Z,100165.61
2019-06-07T15:02:42.696Z,100212.95
2019-06-07T15:07:46.133Z,100275.02
2019-06-07T15:12:49.861Z,100277.82
2019-06-07T15:17:53.612Z,100266.97
2019-06-07T15:22:57.086Z,100292.23
2019-06-07T15:28:00.583Z,100294.59
2019-06-07T15:33:04.959Z,100291.86
2019-06-07T15:38:08.468Z,100312.48
2019-06-07T15:43:12.958Z,100313.98
2019-06-07T15:48:16.708Z,100317.56
2019-06-07T15:53:20.255Z,100305.60
2019-06-07T15:58:23.730Z,100308.28
2019-06-07T16:03:27.214Z,100345.81
2019-06-07T16:08:32.199Z,100357.98
2019-06-07T16:13:36.634Z,100356.77
2019-06-07T16:18:41.600Z,100374.47
2019-06-07T16:23:45.225Z,100367.61
2019-06-07T16:28:48.824Z,100363.13
2019-06-07T16:33:52.365Z,100351.28
2019-06-07T16:38:55.796Z,100319.81
2019-06-07T16:43:59.274Z,100299.95
2019-06-07T16:49:02.808Z,100281.37
2019-06-07T16:54:06.348Z,100262.93
2019-06-07T16:59:09.993Z,100219.66
2019-06-07T17:04:13.491Z,100200.95
2019-06-07T17:09:16.945Z,100205.98
2019-06-07T17:14:20.461Z,100211.52
2019-06-07T17:19:24.178Z,100260.00
2019-06-07T17:24:27.714Z,100263.71
2019-06-07T17:29:31.194Z,100268.58
2019-06-07T17:34:34.727Z,100260.30
2019-06-07T17:39:38.191Z,100248.61
2019-06-07T17:44:42.852Z,100226.88
2019-06-07T17:49:47.782Z,100218.32
2019-06-07T17:54:52.401Z,100243.53
2019-06-07T17:59:55.921Z,100238.89
2019-06-07T18:04:59.389Z,100250.62
2019-06-07T18:10:05.259Z,100239.88
2019-06-07T18:15:11.228Z,100229.71
2019-06-07T18:20:15.518Z,100222.61
2019-06-07T18:25:19.239Z,100237.12
2019-06-07T18:30:22.754Z,100239.19
2019-06-07T18:35:26.239Z,100243.84
2019-06-07T18:40:29.776Z,100223.37
2019-06-07T18:45:34.900Z,100226.63
2019-06-07T18:50:38.384Z,100202.84
2019-06-07T18:55:41.985Z,100199.63
2019-06-07T19:00:45.526Z,100188.20
2019-06-07T19:05:50.017Z,100182.02
2019-06-07T19:10:54.734Z,100177.91
2019-06-07T19:15:59.434Z,100172.96
2019-06-07T19:21:03.553Z,100185.66
2019-06-07T19:26:07.071Z,100209.55
2019-06-07T19:31:10.546Z,100244.53
2019-06-07T19:36:14.022Z,100234.82
2019-06-07T19:41:19.855Z,100244.63
2019-06-07T19:46:22.693Z,100244.63
2019-06-07T19:51:26.250Z,100250.00
2019-06-07T19:56:30.072Z,100236.31
2019-06-07T20:01:33.554Z,100225.39
2019-06-07T20:06:37.009Z,100247.84
2019-06-07T20:11:40.500Z,100236.28
2019-06-07T20:16:44.300Z,100236.28
2019-06-07T20:21:48.032Z,100232.38
2019-06-07T20:26:51.935Z,100231.98
2019-06-07T20:31:56.227Z,100237.34
2019-06-07T20:37:00.239Z,100232.59
2019-06-07T20:42:03.789Z,100234.06
2019-06-07T20:47:08.403Z,100233.71
2019-06-07T20:52:12.109Z,100245.91
2019-06-07T20:57:15.744Z,100244.22
2019-06-07T21:02:19.249Z,100252.62
2019-06-07T21:07:22.711Z,100240.20
2019-06-07T21:12:26.196Z,100246.41
2019-06-07T21:17:29.697Z,100243.27
2019-06-07T21:22:33.714Z,100239.72
2019-06-07T21:27:37.214Z,100248.90
2019-06-07T21:32:40.952Z,100256.92
2019-06-07T21:37:44.427Z,100260.42
2019-06-07T21:42:47.875Z,100272.73
2019-06-07T21:47:51.364Z,100277.87
2019-06-07T21:52:54.829Z,100281.27
2019-06-07T21:57:58.526Z,100296.94
2019-06-07T22:03:03.233Z,100293.53
2019-06-07T22:08:08.162Z,100305.38
2019-06-07T22:13:12.196Z,100307.46
2019-06-07T22:18:15.717Z,100325.86
2019-06-07T22:23:19.355Z,100307.00
2019-06-07T22:28:22.826Z,100309.91
2019-06-07T22:33:26.319Z,100302.09
2019-06-07T22:38:29.844Z,100293.94
2019-06-07T22:43:33.323Z,100309.69
2019-06-07T22:48:36.830Z,100306.39
2019-06-07T22:53:41.845Z,100283.95
2019-06-07T22:58:45.856Z,100297.01
2019-06-07T23:03:49.340Z,100292.98
2019-06-07T23:08:52.877Z,100308.23
2019-06-07T23:13:56.459Z,100293.48
2019-06-07T23:18:59.868Z,100282.14
2019-06-07T23:24:03.599Z,100289.58
2019-06-07T23:29:07.059Z,100276.89
2019-06-07T23:34:10.556Z,100299.08
2019-06-07T23:39:15.312Z,100294.83
2019-06-07T23:44:19.367Z,100291.65
2019-06-07T23:49:22.891Z,100300.31
2019-06-07T23:54:26.350Z,100304.22
2019-06-07T23:59:30.303Z,100272.88
